Time;durP1;ratioP1;P1;durP2;ratioP2;P2;SDS_P1;SDS_P2;PMS_P1;PMS_P2;Temp;Humidity;BMP_temperature;BMP_pressure;BME280_temperature;BME280_humidity;BME280_pressure;Samples;Min_cycle;Max_cycle;Signal;HPM_P1;HPM_P2
2024/03/17 00:01:55;;;;;;;30.13;22.55;;;333.40;2329.60;;;;;;5010876;28;20468;-73
2024/03/17 00:04:21;;;;;;;36.75;27.90;;;333.40;2329.60;;;;;;5011187;28;20030;-73
2024/03/17 00:06:47;;;;;;;41.50;28.25;;;333.30;2329.60;;;;;;5010808;28;20545;-73
2024/03/17 00:09:13;;;;;;;37.03;25.10;;;333.40;2329.60;;;;;;5010897;28;20072;-72
2024/03/17 00:11:39;;;;;;;36.85;25.17;;;333.30;2329.60;;;;;;5010544;28;20105;-72
2024/03/17 00:14:06;;;;;;;36.00;25.98;;;333.30;2329.60;;;;;;5010928;28;20033;-74
2024/03/17 00:16:32;;;;;;;29.60;22.75;;;333.40;2329.60;;;;;;5010717;28;20072;-72
2024/03/17 00:18:58;;;;;;;35.10;25.02;;;333.40;2329.60;;;;;;5010488;28;20515;-73
2024/03/17 00:21:26;;;;;;;28.92;22.25;;;333.40;2329.60;;;;;;5010763;28;20025;-73
2024/03/17 00:23:52;;;;;;;25.58;20.60;;;333.40;2329.60;;;;;;5010446;28;20029;-74
2024/03/17 00:26:19;;;;;;;25.58;22.80;;;333.30;2329.60;;;;;;5010496;28;20388;-73
2024/03/17 00:28:48;;;;;;;34.75;24.30;;;333.40;2329.60;;;;;;4992986;28;20037;-73
2024/03/17 00:31:15;;;;;;;34.35;25.38;;;333.40;2329.60;;;;;;5010559;28;20034;-73
2024/03/17 00:33:41;;;;;;;31.67;24.15;;;333.40;2329.60;;;;;;4992765;28;20037;-74
2024/03/17 00:36:07;;;;;;;28.10;22.50;;;333.40;2329.60;;;;;;5010705;28;20026;-74
2024/03/17 00:38:33;;;;;;;23.05;17.67;;;358.40;2329.60;;;;;;5010527;28;20025;-74
2024/03/17 00:40:59;;;;;;;16.27;13.43;;;333.30;2329.60;;;;;;5009516;28;20464;-73
2024/03/17 00:43:25;;;;;;;13.88;10.98;;;333.30;2329.60;;;;;;5006013;28;20038;-74
2024/03/17 00:45:52;;;;;;;19.55;13.85;;;333.30;2329.60;;;;;;5024046;28;20029;-73
2024/03/17 00:48:18;;;;;;;33.20;22.83;;;333.30;2329.60;;;;;;5005772;28;20023;-74
2024/03/17 00:50:44;;;;;;;24.42;16.77;;;333.40;2329.60;;;;;;5016658;28;20188;-74
2024/03/17 00:53:11;;;;;;;34.03;21.92;;;333.40;2329.60;;;;;;5005664;28;20025;-72
2024/03/17 00:55:37;;;;;;;34.40;24.75;;;333.40;2329.60;;;;;;5014698;28;20026;-72
2024/03/17 00:58:04;;;;;;;25.30;19.60;;;333.40;2329.60;;;;;;5009635;28;20061;-72
2024/03/17 01:00:30;;;;;;;45.35;29.65;;;333.40;2329.60;;;;;;5020317;28;20025;-74
2024/03/17 01:02:56;;;;;;;66.00;42.88;;;333.40;2329.60;;;;;;5010568;28;20034;-73
2024/03/17 01:05:22;;;;;;;67.32;45.00;;;333.40;2329.60;;;;;;5019490;28;20478;-74
2024/03/17 01:07:49;;;;;;;63.35;40.03;;;333.40;2329.60;;;;;;4997441;28;20460;-73
2024/03/17 01:10:15;;;;;;;30.58;20.50;;;333.40;2329.60;;;;;;5010198;28;20033;-73
2024/03/17 01:12:41;;;;;;;18.20;14.45;;;333.40;2329.60;;;;;;5009792;28;20037;-73
2024/03/17 01:15:08;;;;;;;28.60;19.65;;;333.40;2329.60;;;;;;5009635;28;20022;-73
2024/03/17 01:17:34;;;;;;;45.55;27.23;;;333.40;2329.60;;;;;;5009721;28;20390;-74
2024/03/17 01:20:00;;;;;;;71.50;42.22;;;333.40;2329.60;;;;;;5009479;28;20026;-73
2024/03/17 01:22:26;;;;;;;50.47;32.90;;;333.40;2329.60;;;;;;5009944;28;20037;-73
2024/03/17 01:24:51;;;;;;;34.33;23.10;;;333.20;2329.60;;;;;;5009280;28;20507;-74
2024/03/17 01:27:17;;;;;;;24.90;17.40;;;333.40;2329.60;;;;;;5009500;28;20057;-73
2024/03/17 01:29:43;;;;;;;37.30;27.95;;;333.40;2329.60;;;;;;5008943;28;20488;-74
2024/03/17 01:32:10;;;;;;;21.63;17.23;;;333.40;2329.60;;;;;;5009047;28;20033;-74
2024/03/17 01:34:38;;;;;;;16.27;13.68;;;333.30;2329.60;;;;;;5009525;28;20026;-74
2024/03/17 01:37:04;;;;;;;16.25;12.35;;;333.40;2329.60;;;;;;5009280;28;20026;-73
2024/03/17 01:39:31;;;;;;;13.65;10.57;;;333.30;2329.60;;;;;;5009362;28;20049;-74
2024/03/17 01:41:58;;;;;;;14.23;11.25;;;333.20;2329.60;;;;;;5009040;28;20033;-73
2024/03/17 01:44:29;;;;;;;15.95;12.07;;;333.30;2329.60;;;;;;5009105;28;20104;-72
2024/03/17 01:46:56;;;;;;;14.18;11.43;;;333.30;2329.60;;;;;;5009347;28;20322;-73
2024/03/17 01:49:23;;;;;;;15.88;11.80;;;333.30;2329.60;;;;;;5008873;28;20022;-73
2024/03/17 01:51:49;;;;;;;16.77;11.70;;;333.20;2329.60;;;;;;5009047;28;20495;-74
2024/03/17 01:54:16;;;;;;;13.68;10.93;;;333.20;2329.60;;;;;;5009414;28;20365;-72
2024/03/17 01:56:43;;;;;;;14.07;11.20;;;333.20;2329.60;;;;;;5008790;28;20456;-73
2024/03/17 01:59:09;;;;;;;14.27;10.63;;;333.20;2329.60;;;;;;5008878;28;20547;-73
2024/03/17 02:01:36;;;;;;;11.07;9.07;;;333.20;2329.60;;;;;;5008753;28;20030;-73
2024/03/17 02:04:06;;;;;;;12.45;10.35;;;333.10;2329.60;;;;;;5008791;28;20030;-73
2024/03/17 02:06:32;;;;;;;16.00;11.50;;;333.10;2329.60;;;;;;5008446;28;20037;-73
2024/03/17 02:08:58;;;;;;;12.38;9.70;;;333.10;2329.60;;;;;;4991605;28;20412;-73
2024/03/17 02:11:26;;;;;;;11.65;9.88;;;333.10;2329.60;;;;;;5008804;28;20022;-73
2024/03/17 02:13:53;;;;;;;15.50;11.10;;;333.10;2329.60;;;;;;5008050;28;20045;-73
2024/03/17 02:16:20;;;;;;;13.05;9.52;;;333.10;2329.60;;;;;;5008405;28;20072;-73
2024/03/17 02:18:46;;;;;;;13.98;10.93;;;333.00;2329.60;;;;;;5008855;28;20048;-73
2024/03/17 02:21:15;;;;;;;16.55;11.98;;;333.00;2329.60;;;;;;5008590;28;20152;-74
2024/03/17 02:23:42;;;;;;;17.95;12.23;;;333.00;2329.60;;;;;;5008600;28;20025;-73
2024/03/17 02:26:08;;;;;;;18.05;13.98;;;333.00;2329.60;;;;;;5008532;28;20022;-74
2024/03/17 02:28:45;;;;;;;19.92;13.38;;;333.10;2329.60;;;;;;5009043;28;20224;-73
2024/03/17 02:31:12;;;;;;;18.00;13.00;;;333.20;2329.60;;;;;;5008422;28;20438;-73
2024/03/17 02:33:38;;;;;;;16.90;13.15;;;333.20;2329.60;;;;;;5008597;28;20030;-73
2024/03/17 02:36:07;;;;;;;18.67;14.43;;;333.20;2329.60;;;;;;5008883;28;20034;-75
2024/03/17 02:41:18;;;;;;;13.32;10.55;;;333.20;2329.60;;;;;;4998278;28;20519;-73
2024/03/17 02:43:45;;;;;;;13.70;10.95;;;333.20;2329.60;;;;;;5008701;28;20033;-73
2024/03/17 02:46:13;;;;;;;12.00;9.75;;;333.20;2329.60;;;;;;5008409;28;20033;-74
2024/03/17 02:48:44;;;;;;;12.93;9.25;;;333.20;2329.60;;;;;;5008830;28;20481;-72
2024/03/17 02:51:14;;;;;;;15.32;12.13;;;333.20;2329.60;;;;;;5008564;28;20500;-73
2024/03/17 02:53:47;;;;;;;12.57;9.77;;;333.20;2329.60;;;;;;5008359;28;20116;-74
2024/03/17 02:56:17;;;;;;;17.48;9.75;;;333.20;2329.60;;;;;;4990657;28;20041;-73
2024/03/17 02:58:46;;;;;;;19.75;14.68;;;333.20;2329.60;;;;;;5007965;28;20022;-75
2024/03/17 03:01:13;;;;;;;15.85;10.52;;;333.30;2329.60;;;;;;5008154;28;20034;-72
2024/03/17 03:03:38;;;;;;;17.65;10.40;;;333.30;2329.60;;;;;;5008140;28;20176;-74
2024/03/17 03:06:08;;;;;;;13.05;10.07;;;333.40;2329.60;;;;;;5008639;28;20046;-74
2024/03/17 03:08:38;;;;;;;13.55;10.25;;;333.40;2329.60;;;;;;5008267;28;20026;-74
2024/03/17 03:11:06;;;;;;;14.82;10.75;;;333.30;2329.60;;;;;;5008705;28;20034;-74
2024/03/17 03:13:31;;;;;;;13.65;10.88;;;333.30;2329.60;;;;;;5008001;28;20026;-74
2024/03/17 03:15:57;;;;;;;13.63;10.35;;;333.30;2329.60;;;;;;5008277;28;20049;-74
2024/03/17 03:18:23;;;;;;;13.88;11.13;;;333.30;2329.60;;;;;;5008035;28;20381;-74
2024/03/17 03:20:55;;;;;;;15.15;11.73;;;333.30;2329.60;;;;;;5008209;28;20114;-73
2024/03/17 03:23:21;;;;;;;15.77;12.57;;;333.30;2329.60;;;;;;5007966;28;20033;-73
2024/03/17 03:25:47;;;;;;;16.73;13.07;;;333.30;2329.60;;;;;;5010906;28;20018;-72
2024/03/17 03:28:13;;;;;;;18.27;13.32;;;333.30;2329.60;;;;;;5011622;28;20415;-72
2024/03/17 03:30:39;;;;;;;14.40;11.95;;;333.20;2329.60;;;;;;5011297;28;20034;-73
2024/03/17 03:33:05;;;;;;;16.50;13.07;;;333.20;2329.60;;;;;;5011760;28;20030;-73
2024/03/17 03:35:31;;;;;;;14.95;11.95;;;333.20;2329.60;;;;;;5011484;28;20445;-73
2024/03/17 03:37:58;;;;;;;15.32;12.23;;;333.20;2329.60;;;;;;5011827;28;20293;-72
2024/03/17 03:40:27;;;;;;;27.30;16.20;;;333.20;2329.60;;;;;;4993543;28;20038;-74
2024/03/17 03:42:53;;;;;;;17.95;13.40;;;333.20;2329.60;;;;;;5011222;28;20029;-73
2024/03/17 03:45:20;;;;;;;17.13;12.82;;;333.30;2329.60;;;;;;5011204;28;20121;-74
2024/03/17 03:47:46;;;;;;;16.85;12.77;;;333.30;2329.60;;;;;;5011736;28;20025;-73
2024/03/17 03:50:15;;;;;;;16.88;12.90;;;333.30;2329.60;;;;;;5011207;28;20037;-73
2024/03/17 03:52:41;;;;;;;17.05;13.95;;;333.40;2329.60;;;;;;5011219;28;20036;-73
2024/03/17 03:55:14;;;;;;;18.50;13.48;;;333.40;2329.60;;;;;;5011409;28;20100;-72
2024/03/17 03:57:47;;;;;;;18.35;12.82;;;333.30;2329.60;;;;;;5010969;28;20045;-73
2024/03/17 04:00:21;;;;;;;16.20;12.70;;;333.40;2329.60;;;;;;5010809;28;20022;-73
2024/03/17 04:02:51;;;;;;;;;;;333.40;2329.60;;;;;;5011707;28;20030;-72
2024/03/17 04:05:17;;;;;;;17.70;13.75;;;333.30;2329.60;;;;;;4998950;28;19913;-73
2024/03/17 04:07:45;;;;;;;18.17;13.05;;;333.40;2329.60;;;;;;5010808;28;20049;-73
2024/03/17 04:10:12;;;;;;;22.40;18.77;;;333.20;2329.60;;;;;;5011099;28;20017;-73
2024/03/17 04:12:38;;;;;;;24.55;19.52;;;333.30;2329.60;;;;;;5010744;28;20384;-74
2024/03/17 04:15:06;;;;;;;30.15;22.50;;;333.20;2329.60;;;;;;5010739;28;20017;-74
2024/03/17 04:17:32;;;;;;;28.08;21.60;;;333.20;2329.60;;;;;;5010708;28;20053;-75
2024/03/17 04:20:00;;;;;;;30.63;22.92;;;333.20;2329.60;;;;;;5011159;28;20111;-73
2024/03/17 04:22:27;;;;;;;30.98;23.13;;;333.20;2329.60;;;;;;5010739;28;20435;-74
2024/03/17 04:24:57;;;;;;;29.15;20.95;;;333.20;2329.60;;;;;;5010544;28;20118;-73
2024/03/17 04:27:28;;;;;;;23.20;18.25;;;333.10;2329.60;;;;;;5010380;28;20026;-77
2024/03/17 04:29:55;;;;;;;26.27;19.27;;;333.10;2329.60;;;;;;5010333;28;20069;-74
2024/03/17 04:32:21;;;;;;;24.85;19.65;;;333.20;2329.60;;;;;;5009992;28;20025;-74
2024/03/17 04:34:47;;;;;;;31.25;23.75;;;333.20;2329.60;;;;;;5010705;28;20088;-75
2024/03/17 04:37:13;;;;;;;23.95;19.58;;;333.10;2329.60;;;;;;5009272;28;20202;-74
2024/03/17 04:39:40;;;;;;;20.58;17.75;;;332.90;2329.60;;;;;;5010306;28;20376;-74
2024/03/17 04:42:07;;;;;;;21.20;16.23;;;333.10;2329.60;;;;;;5010387;28;20081;-74
2024/03/17 04:44:32;;;;;;;24.38;18.75;;;333.00;2329.60;;;;;;5010181;28;20018;-74
2024/03/17 04:46:58;;;;;;;26.85;19.13;;;333.00;2329.60;;;;;;5010091;28;20928;-75
2024/03/17 04:49:24;;;;;;;26.67;19.45;;;333.00;2329.60;;;;;;5010163;28;20084;-74
2024/03/17 04:51:50;;;;;;;24.42;17.77;;;332.90;2329.60;;;;;;5009881;28;20054;-74
2024/03/17 04:54:16;;;;;;;23.45;18.23;;;332.80;2329.60;;;;;;5010067;28;20032;-73
2024/03/17 04:56:42;;;;;;;23.05;20.67;;;332.80;2329.60;;;;;;5009750;28;20040;-74
2024/03/17 04:59:08;;;;;;;21.58;17.83;;;332.90;2329.60;;;;;;5009869;28;20018;-74
2024/03/17 05:01:36;;;;;;;21.38;17.65;;;332.80;2329.60;;;;;;5009834;28;20026;-74
2024/03/17 05:04:05;;;;;;;21.00;16.63;;;332.80;2329.60;;;;;;5009841;28;20030;-74
2024/03/17 05:06:31;;;;;;;23.80;17.92;;;332.80;2329.60;;;;;;5009911;28;20419;-74
2024/03/17 05:08:57;;;;;;;19.10;16.67;;;332.80;2329.60;;;;;;5010209;28;20079;-74
2024/03/17 05:11:23;;;;;;;21.98;17.30;;;332.80;2329.60;;;;;;5010181;28;20021;-73
2024/03/17 05:13:50;;;;;;;18.63;16.08;;;332.90;2329.60;;;;;;5009508;28;20011;-75
2024/03/17 05:16:16;;;;;;;20.20;17.75;;;332.90;2329.60;;;;;;5009920;28;20049;-74
2024/03/17 05:18:42;;;;;;;19.05;17.05;;;332.90;2329.60;;;;;;5009571;28;20026;-74
2024/03/17 05:21:09;;;;;;;20.92;16.00;;;332.90;2329.60;;;;;;5009843;28;20402;-73
2024/03/17 05:23:36;;;;;;;22.20;16.60;;;332.90;2329.60;;;;;;5009764;28;20025;-76
2024/03/17 05:26:06;;;;;;;24.63;17.00;;;332.90;2329.60;;;;;;5003403;28;20105;-73
2024/03/17 05:28:32;;;;;;;22.58;18.67;;;332.90;2329.60;;;;;;5009415;28;20167;-74
2024/03/17 05:30:59;;;;;;;21.88;16.60;;;333.00;2329.60;;;;;;5009571;28;20057;-74
2024/03/17 05:33:26;;;;;;;21.42;17.70;;;332.90;2329.60;;;;;;5009219;28;20368;-72
2024/03/17 05:35:56;;;;;;;20.60;17.27;;;333.00;2329.60;;;;;;5009420;28;20041;-75
2024/03/17 05:38:26;;;;;;;35.35;22.42;;;333.00;2329.60;;;;;;5009161;28;20632;-73
2024/03/17 05:41:03;;;;;;;33.28;24.00;;;333.10;2329.60;;;;;;5009319;28;20014;-75
2024/03/17 05:43:32;;;;;;;30.98;21.55;;;333.10;2329.60;;;;;;5008870;28;20033;-73
2024/03/17 05:46:05;;;;;;;28.83;20.42;;;333.10;2329.60;;;;;;5009163;28;20104;-75
2024/03/17 05:48:37;;;;;;;24.08;18.10;;;333.20;2329.60;;;;;;5008283;28;20034;-72
2024/03/17 05:51:04;;;;;;;24.80;18.27;;;333.10;2329.60;;;;;;5014389;28;20025;-73
2024/03/17 05:53:31;;;;;;;25.65;20.08;;;333.10;2329.60;;;;;;5013604;28;20022;-74
2024/03/17 05:55:59;;;;;;;30.30;20.23;;;333.10;2329.60;;;;;;5018767;28;20120;-73
2024/03/17 05:58:25;;;;;;;26.55;18.77;;;333.10;2329.60;;;;;;5007128;28;20108;-73
2024/03/17 06:00:51;;;;;;;40.63;27.02;;;333.10;2329.60;;;;;;5000910;28;20050;-73
2024/03/17 06:03:17;;;;;;;24.45;15.68;;;333.10;2329.60;;;;;;5019733;28;20104;-73
2024/03/17 06:05:45;;;;;;;22.52;19.52;;;333.10;2329.60;;;;;;5008867;28;20026;-73
2024/03/17 06:08:12;;;;;;;26.23;19.08;;;333.20;2329.60;;;;;;5018428;28;20018;-72
2024/03/17 06:10:42;;;;;;;20.63;16.58;;;333.10;2329.60;;;;;;5002332;28;20045;-73
2024/03/17 06:13:11;;;;;;;20.85;16.52;;;333.10;2329.60;;;;;;5002761;28;20041;-72
2024/03/17 06:15:38;;;;;;;24.73;17.20;;;333.10;2329.60;;;;;;5023713;28;20512;-74
2024/03/17 06:18:04;;;;;;;30.25;20.40;;;333.20;2329.60;;;;;;5018093;28;20046;-72
2024/03/17 06:20:30;;;;;;;21.08;14.90;;;333.10;2329.60;;;;;;5021751;28;20029;-72
2024/03/17 06:22:57;;;;;;;21.33;15.85;;;333.10;2329.60;;;;;;5016724;28;20026;-72
2024/03/17 06:25:25;;;;;;;18.15;15.07;;;333.10;2329.60;;;;;;5021462;28;20112;-73
2024/03/17 06:27:52;;;;;;;21.48;16.75;;;333.10;2329.60;;;;;;5008674;28;20468;-73
2024/03/17 06:30:18;;;;;;;21.63;17.55;;;333.20;2329.60;;;;;;5008622;28;20058;-73
2024/03/17 06:32:46;;;;;;;23.60;16.02;;;333.20;2329.60;;;;;;5008724;28;20076;-72
2024/03/17 06:35:15;;;;;;;23.85;20.10;;;333.10;2329.60;;;;;;5008861;28;20133;-74
2024/03/17 06:37:42;;;;;;;20.95;16.55;;;333.20;2329.60;;;;;;4996147;28;20033;-74
2024/03/17 06:40:14;;;;;;;22.88;16.88;;;333.30;2329.60;;;;;;5008855;28;20022;-74
2024/03/17 06:42:40;;;;;;;31.23;21.92;;;333.30;2329.60;;;;;;5008631;28;20037;-72
2024/03/17 06:45:09;;;;;;;26.17;21.58;;;333.20;2329.60;;;;;;5008392;28;20053;-73
2024/03/17 06:47:39;;;;;;;21.55;17.73;;;333.40;2329.60;;;;;;5008717;28;20053;-72
2024/03/17 06:50:06;;;;;;;20.55;15.70;;;333.40;2329.60;;;;;;5008648;28;20076;-73
2024/03/17 06:52:32;;;;;;;18.67;14.38;;;333.40;2329.60;;;;;;5008666;28;20026;-74
2024/03/17 06:54:58;;;;;;;18.10;14.00;;;333.50;2329.60;;;;;;5008526;28;20030;-73
2024/03/17 06:57:25;;;;;;;38.53;16.25;;;333.50;2329.60;;;;;;5008904;28;20073;-73
2024/03/17 06:59:51;;;;;;;23.75;20.20;;;333.50;2329.60;;;;;;5009510;28;20014;-73
2024/03/17 07:02:18;;;;;;;40.17;35.70;;;333.40;2329.60;;;;;;5012360;28;20029;-72
2024/03/17 07:04:47;;;;;;;24.42;18.83;;;333.30;2329.60;;;;;;5009841;28;20523;-71
2024/03/17 07:07:14;;;;;;;22.15;17.05;;;333.30;2329.60;;;;;;4995202;28;20391;-72
2024/03/17 07:09:41;;;;;;;18.67;14.52;;;333.30;2329.60;;;;;;5011553;28;20121;-72
2024/03/17 07:12:08;;;;;;;21.13;16.23;;;333.20;2329.60;;;;;;5012589;28;20054;-73
2024/03/17 07:14:34;;;;;;;26.70;17.15;;;333.20;2329.60;;;;;;5011622;28;20022;-73
2024/03/17 07:17:00;;;;;;;21.60;16.80;;;333.20;2329.60;;;;;;5014788;28;20037;-73
2024/03/17 07:19:26;;;;;;;25.23;17.02;;;333.30;2329.60;;;;;;5029081;28;20072;-73
2024/03/17 07:21:51;;;;;;;24.55;18.35;;;333.30;2329.60;;;;;;5021220;28;20068;-74
2024/03/17 07:24:18;;;;;;;24.23;20.77;;;333.30;2329.60;;;;;;5008332;28;20068;-72
2024/03/17 07:26:43;;;;;;;24.92;22.35;;;333.30;2329.60;;;;;;5030524;28;20025;-73
2024/03/17 07:29:10;;;;;;;19.10;15.85;;;333.30;2329.60;;;;;;5009321;28;20555;-74
2024/03/17 07:31:36;;;;;;;19.30;14.57;;;333.40;2329.60;;;;;;5005582;28;20033;-73
2024/03/17 07:34:02;;;;;;;16.95;15.18;;;333.50;2329.60;;;;;;5011648;28;20041;-72
2024/03/17 07:36:28;;;;;;;17.45;13.68;;;333.50;2329.60;;;;;;4994361;28;20107;-73
2024/03/17 07:38:54;;;;;;;17.02;12.70;;;333.60;2329.60;;;;;;5011784;28;20472;-73
2024/03/17 07:41:20;;;;;;;16.08;14.07;;;333.70;2329.60;;;;;;5011636;28;20441;-72
2024/03/17 07:43:46;;;;;;;16.48;14.48;;;333.70;2329.60;;;;;;5011406;28;20026;-72
2024/03/17 07:46:13;;;;;;;25.40;22.58;;;333.60;2329.60;;;;;;5011352;28;20029;-72
2024/03/17 07:48:44;;;;;;;17.50;14.45;;;333.60;2329.60;;;;;;5006114;28;20025;-74
2024/03/17 07:51:12;;;;;;;21.02;18.40;;;333.70;2329.60;;;;;;5000313;28;20100;-73
2024/03/17 07:53:44;;;;;;;12.30;8.35;;;333.70;2329.60;;;;;;5008151;28;20582;-73
2024/03/17 07:56:11;;;;;;;15.70;11.57;;;333.70;2329.60;;;;;;5011416;28;20354;-72
2024/03/17 07:58:39;;;;;;;11.52;8.75;;;333.70;2329.60;;;;;;5011439;28;20111;-71
2024/03/17 08:01:10;;;;;;;10.25;7.90;;;333.60;2329.60;;;;;;5011421;28;20026;-74
2024/03/17 08:03:38;;;;;;;15.02;13.07;;;333.50;2329.60;;;;;;5008368;28;20416;-74
2024/03/17 08:06:06;;;;;;;10.27;8.88;;;333.70;2329.60;;;;;;5011460;28;20037;-73
2024/03/17 08:08:32;;;;;;;15.25;11.65;;;333.70;2329.60;;;;;;5011168;28;20029;-73
2024/03/17 08:10:59;;;;;;;21.35;12.50;;;333.70;2329.60;;;;;;5010114;28;20030;-74
2024/03/17 08:13:25;;;;;;;37.47;32.75;;;358.40;2329.60;;;;;;5011134;28;20026;-72
2024/03/17 08:16:00;;;;;;;17.65;15.68;;;358.50;2329.60;;;;;;5010123;28;20026;-74
2024/03/17 08:18:27;;;;;;;11.68;9.93;;;358.50;2329.60;;;;;;5010944;28;20034;-73
2024/03/17 08:20:56;;;;;;;20.02;17.67;;;358.70;2329.60;;;;;;4999292;28;20041;-73
2024/03/17 08:23:24;;;;;;;10.80;9.52;;;358.80;2329.60;;;;;;5010576;28;20018;-73
2024/03/17 08:25:54;;;;;;;10.40;7.43;;;358.90;2329.60;;;;;;5010547;28;20026;-73
2024/03/17 08:28:21;;;;;;;9.88;6.60;;;359.00;2329.60;;;;;;5010796;28;20467;-73
2024/03/17 08:31:03;;;;;;;41.58;25.00;;;359.10;2329.60;;;;;;5010201;28;20103;-73
2024/03/17 08:33:30;;;;;;;9.23;6.70;;;359.20;2329.60;;;;;;5010951;28;20088;-73
2024/03/17 08:35:59;;;;;;;9.63;7.20;;;359.30;2329.60;;;;;;5010594;28;20113;-73
2024/03/17 08:38:26;;;;;;;10.32;7.25;;;359.30;2329.60;;;;;;5010443;28;20202;-72
2024/03/17 08:40:52;;;;;;;10.80;8.07;;;384.00;2329.60;;;;;;4998664;28;20503;-73
2024/03/17 08:43:22;;;;;;;9.07;7.53;;;384.00;2329.60;;;;;;5001764;28;20483;-72
2024/03/17 08:46:05;;;;;;;12.02;7.88;;;384.00;2329.60;;;;;;5002672;28;20169;-71
2024/03/17 08:48:32;;;;;;;11.17;7.90;;;359.30;2329.60;;;;;;4983205;28;20440;-72
2024/03/17 08:50:59;;;;;;;28.73;15.02;;;359.20;2329.60;;;;;;4993383;28;20038;-71
2024/03/17 08:53:26;;;;;;;14.35;8.48;;;359.20;2329.60;;;;;;5000381;28;20373;-72
2024/03/17 08:55:53;;;;;;;10.73;7.60;;;359.30;2329.60;;;;;;5002745;28;20049;-73
2024/03/17 08:58:19;;;;;;;13.48;7.82;;;359.10;2329.60;;;;;;4998728;28;20018;-73
2024/03/17 09:00:45;;;;;;;11.77;9.95;;;359.30;2329.60;;;;;;4995733;28;20141;-73
2024/03/17 09:03:12;;;;;;;38.65;34.67;;;384.10;2329.60;;;;;;5000420;28;20022;-72
2024/03/17 09:05:46;;;;;;;38.72;34.55;;;384.30;2329.60;;;;;;4998389;28;20085;-74
2024/03/17 09:08:20;;;;;;;11.48;9.65;;;384.60;2329.60;;;;;;5002898;28;20079;-73
2024/03/17 09:10:47;;;;;;;28.75;21.98;;;384.80;2329.60;;;;;;4996917;28;20039;-73
2024/03/17 09:13:26;;;;;;;8.90;7.68;;;384.90;2329.60;;;;;;5002794;28;20022;-73
2024/03/17 09:16:02;;;;;;;9.52;7.07;;;409.70;2355.20;;;;;;4998703;28;20041;-72
2024/03/17 09:18:32;;;;;;;9.70;7.32;;;409.60;2355.20;;;;;;4994808;28;20530;-73
2024/03/17 09:21:00;;;;;;;150.82;82.15;;;409.80;2355.20;;;;;;5001251;28;20033;-72
2024/03/17 09:23:28;;;;;;;83.45;54.38;;;409.80;2355.20;;;;;;4992962;28;20022;-74
2024/03/17 09:26:09;;;;;;;43.17;35.78;;;409.90;2355.20;;;;;;4995475;28;20076;-72
2024/03/17 09:28:36;;;;;;;10.32;9.23;;;409.90;2355.20;;;;;;5005310;28;20507;-72
2024/03/17 09:31:06;;;;;;;49.28;34.35;;;409.70;2355.20;;;;;;4999407;28;20108;-73
2024/03/17 09:33:33;;;;;;;15.23;11.60;;;409.70;2355.20;;;;;;4992885;28;20045;-73
2024/03/17 09:36:07;;;;;;;15.57;9.80;;;410.00;2355.20;;;;;;5000483;28;20040;-73
2024/03/17 09:38:35;;;;;;;29.30;21.13;;;410.10;2355.20;;;;;;5001969;28;20677;-74
2024/03/17 09:41:01;;;;;;;10.27;6.95;;;410.30;2355.20;;;;;;4998275;28;20022;-72
2024/03/17 09:43:29;;;;;;;7.53;6.20;;;410.30;2355.20;;;;;;4998594;28;20034;-73
2024/03/17 09:45:57;;;;;;;115.63;77.68;;;410.30;2355.20;;;;;;5001541;28;20030;-74
2024/03/17 09:48:24;;;;;;;12.32;8.80;;;410.50;2355.20;;;;;;4999237;28;20030;-71
2024/03/17 09:50:55;;;;;;;19.85;17.90;;;435.20;2355.20;;;;;;5000575;28;20026;-73
2024/03/17 09:53:27;;;;;;;6.15;5.47;;;435.20;2355.20;;;;;;4992910;28;20395;-72
2024/03/17 09:55:59;;;;;;;7.20;5.47;;;410.50;2355.20;;;;;;4995705;28;20166;-72
2024/03/17 09:58:25;;;;;;;8.45;5.97;;;435.20;2355.20;;;;;;4998206;28;20576;-71
2024/03/17 10:00:51;;;;;;;14.00;12.70;;;435.60;2355.20;;;;;;5002184;28;20033;-74
2024/03/17 10:03:42;;;;;;;9.70;8.75;;;435.90;2355.20;;;;;;4998544;28;20049;-73
2024/03/17 10:06:12;;;;;;;5.75;5.03;;;435.90;2355.20;;;;;;4992069;28;20388;-73
2024/03/17 10:08:52;;;;;;;7.50;5.97;;;436.10;2355.20;;;;;;5004346;28;20053;-72
2024/03/17 10:11:32;;;;;;;12.90;9.95;;;436.10;2355.20;;;;;;5000166;28;20491;-72
2024/03/17 10:14:04;;;;;;;5.93;4.60;;;460.80;2380.80;;;;;;4994726;28;20601;-72
2024/03/17 10:16:34;;;;;;;11.38;7.38;;;460.90;2380.80;;;;;;4993549;28;20132;-72
2024/03/17 10:19:15;;;;;;;19.02;15.20;;;461.10;2380.80;;;;;;4998564;28;20044;-72
2024/03/17 10:21:49;;;;;;;6.78;5.40;;;461.40;2380.80;;;;;;4999337;28;20038;-74
2024/03/17 10:24:22;;;;;;;;;;;461.50;2380.80;;;;;;4999862;28;20034;-72
2024/03/17 10:26:52;;;;;;;13.07;10.73;;;486.40;2380.80;;;;;;4995374;28;19909;-74
2024/03/17 10:29:24;;;;;;;8.60;7.70;;;486.60;2380.80;;;;;;5003884;28;20132;-72
2024/03/17 10:32:02;;;;;;;9.98;8.98;;;486.70;2380.80;;;;;;5006097;28;20464;-73
2024/03/17 10:34:35;;;;;;;6.93;4.82;;;486.80;2380.80;;;;;;5003019;28;20161;-72
2024/03/17 10:37:15;;;;;;;12.98;7.88;;;486.70;2380.80;;;;;;5010903;28;20558;-72
2024/03/17 10:39:42;;;;;;;9.15;7.50;;;486.80;2380.80;;;;;;5000194;28;20052;-74
2024/03/17 10:42:10;;;;;;;6.65;5.20;;;486.80;2380.80;;;;;;5015013;28;20014;-72
2024/03/17 10:44:38;;;;;;;48.95;39.33;;;486.90;2380.80;;;;;;5005938;28;20416;-72
2024/03/17 10:47:11;;;;;;;5.72;4.60;;;486.90;2380.80;;;;;;5000309;28;20018;-71
2024/03/17 10:49:38;;;;;;;;;;;486.50;2380.80;;;;;;4998908;28;20034;-71
2024/03/17 10:52:19;;;;;;;24.80;17.40;;;486.60;2380.80;;;;;;5008024;28;19916;-72
2024/03/17 10:54:50;;;;;;;9.65;6.03;;;486.80;2380.80;;;;;;4996563;28;20441;-73
2024/03/17 10:57:35;;;;;;;6.43;4.82;;;486.80;2380.80;;;;;;5001995;28;20045;-72
2024/03/17 11:00:04;;;;;;;6.15;4.95;;;486.70;2380.80;;;;;;4996635;28;20480;-72
2024/03/17 11:02:38;;;;;;;31.27;22.67;;;486.50;2380.80;;;;;;5001050;28;20483;-71
2024/03/17 11:05:04;;;;;;;76.45;51.15;;;486.50;2380.80;;;;;;4998590;28;20580;-74
2024/03/17 11:07:32;;;;;;;8.75;6.43;;;486.40;2380.80;;;;;;5004671;28;20109;-72
2024/03/17 11:09:59;;;;;;;11.52;7.80;;;461.70;2380.80;;;;;;5005202;28;20033;-73
2024/03/17 11:12:40;;;;;;;29.40;21.13;;;461.60;2380.80;;;;;;4999078;28;20038;-72
2024/03/17 11:15:26;;;;;;;12.73;9.75;;;461.50;2304.00;;;;;;5001531;28;20543;-71
2024/03/17 11:17:53;;;;;;;23.58;16.70;;;486.40;2355.20;;;;;;5000769;28;20088;-71
2024/03/17 11:20:28;;;;;;;8.40;6.15;;;486.60;2278.40;;;;;;5002938;28;20033;-74
2024/03/17 11:22:58;;;;;;;8.32;4.97;;;486.50;2252.80;;;;;;4999055;28;20286;-72
2024/03/17 11:25:30;;;;;;;8.98;6.50;;;486.50;2201.60;;;;;;4997593;28;20121;-72
2024/03/17 11:28:10;;;;;;;7.03;4.43;;;486.40;2201.60;;;;;;4996042;28;20033;-74
2024/03/17 11:31:06;;;;;;;11.07;8.45;;;461.70;2227.20;;;;;;4997920;28;20448;-72
2024/03/17 11:33:35;;;;;;;10.77;8.23;;;461.60;2176.00;;;;;;5002798;28;20366;-71
2024/03/17 11:36:23;;;;;;;10.77;7.65;;;461.60;2150.40;;;;;;4994280;28;20046;-71
2024/03/17 11:39:00;;;;;;;16.40;11.52;;;461.60;2124.80;;;;;;5003977;28;20034;-71
2024/03/17 11:41:42;;;;;;;17.05;11.60;;;461.60;2124.80;;;;;;5000400;28;20026;-71
2024/03/17 11:44:24;;;;;;;40.88;35.22;;;461.60;2150.40;;;;;;5004626;28;20379;-71
2024/03/17 11:46:52;;;;;;;22.55;18.15;;;461.70;2099.20;;;;;;4996293;28;20475;-71
2024/03/17 11:49:22;;;;;;;16.75;12.82;;;461.70;2099.20;;;;;;4999410;28;20037;-72
2024/03/17 11:51:49;;;;;;;13.32;9.68;;;486.50;2099.20;;;;;;5001891;28;20040;-74
2024/03/17 11:54:21;;;;;;;6.30;3.83;;;486.80;2124.80;;;;;;4998198;28;20048;-72
2024/03/17 11:56:52;;;;;;;23.35;15.93;;;487.00;2099.20;;;;;;4993135;28;20049;-72
2024/03/17 11:59:19;;;;;;;11.13;8.07;;;487.10;1996.80;;;;;;5001727;28;20362;-73
2024/03/17 12:01:49;;;;;;;8.48;6.38;;;487.20;1996.80;;;;;;5001212;28;20472;-73
2024/03/17 12:04:16;;;;;;;7.45;4.55;;;512.00;2022.40;;;;;;4994938;28;20093;-73
2024/03/17 12:06:50;;;;;;;10.40;7.18;;;487.20;1996.80;;;;;;5007630;28;20480;-72
2024/03/17 12:09:26;;;;;;;63.92;52.88;;;486.90;1971.20;;;;;;5001638;28;20030;-73
2024/03/17 12:12:06;;;;;;;72.68;64.43;;;486.70;1971.20;;;;;;4998998;28;20072;-75
2024/03/17 12:14:33;;;;;;;25.25;21.13;;;486.70;2022.40;;;;;;4998569;28;20054;-74